Time;durP1;ratioP1;P1;durP2;ratioP2;P2;SDS_P1;SDS_P2;PMS_P1;PMS_P2;Temp;Humidity;BMP_temperature;BMP_pressure;BME280_temperature;BME280_humidity;BME280_pressure;Samples;Min_cycle;Max_cycle;Signal;HPM_P1;HPM_P2
2023/09/14 00:00:30;;;;;;;0.28;0.28;;;22.90;74.00;;;;;;4966020;28;20464;-80
2023/09/14 00:02:56;;;;;;;0.17;0.17;;;22.90;73.80;;;;;;4964119;28;20121;-80
2023/09/14 00:05:21;;;;;;;0.20;0.20;;;22.80;74.00;;;;;;4965878;28;20500;-79
2023/09/14 00:07:47;;;;;;;0.28;0.28;;;22.90;74.00;;;;;;4968263;28;20039;-80
2023/09/14 00:10:12;;;;;;;0.10;0.10;;;22.80;74.00;;;;;;4963763;28;20066;-79
2023/09/14 00:12:38;;;;;;;0.20;0.20;;;22.90;73.90;;;;;;4965846;28;20086;-80
2023/09/14 00:15:04;;;;;;;0.10;0.10;;;22.90;74.00;;;;;;4964232;28;20046;-79
2023/09/14 00:17:30;;;;;;;0.10;0.10;;;22.90;73.90;;;;;;4962209;28;20049;-80
2023/09/14 00:19:55;;;;;;;0.20;0.20;;;22.90;74.00;;;;;;4966558;28;20047;-80
2023/09/14 00:22:21;;;;;;;0.20;0.10;;;22.80;74.00;;;;;;4963344;28;20039;-80
2023/09/14 00:24:46;;;;;;;0.10;0.10;;;22.80;74.10;;;;;;4964582;28;20048;-80
2023/09/14 00:27:12;;;;;;;0.20;0.20;;;22.80;74.10;;;;;;4966788;28;20119;-80
2023/09/14 00:29:37;;;;;;;0.20;0.20;;;22.80;74.00;;;;;;4966377;28;20409;-80
2023/09/14 00:32:03;;;;;;;0.10;0.10;;;22.90;74.10;;;;;;4967192;28;20117;-78
2023/09/14 00:34:29;;;;;;;0.20;0.20;;;22.80;73.70;;;;;;4964545;28;20053;-80
2023/09/14 00:36:54;;;;;;;0.15;0.15;;;22.90;73.80;;;;;;4965809;28;20098;-80
2023/09/14 00:39:20;;;;;;;0.28;0.20;;;22.80;73.80;;;;;;4961902;28;20050;-79
2023/09/14 00:41:46;;;;;;;0.20;0.10;;;22.80;73.90;;;;;;4964948;28;20481;-80
2023/09/14 00:44:11;;;;;;;0.40;0.20;;;22.80;73.90;;;;;;4968731;28;20054;-80
2023/09/14 00:46:37;;;;;;;0.10;0.10;;;22.80;73.90;;;;;;4966538;28;20186;-79
2023/09/14 00:49:02;;;;;;;0.20;0.20;;;22.80;73.80;;;;;;4966030;28;20051;-81
2023/09/14 00:51:29;;;;;;;0.20;0.10;;;22.80;73.90;;;;;;4965556;28;20517;-79
2023/09/14 00:53:55;;;;;;;0.28;0.13;;;22.80;74.70;;;;;;4965427;28;20430;-80
2023/09/14 00:56:21;;;;;;;0.22;0.20;;;22.80;73.80;;;;;;4963934;28;20053;-80
2023/09/14 00:58:47;;;;;;;0.10;0.10;;;22.80;73.90;;;;;;4966810;28;20039;-80
2023/09/14 01:01:14;;;;;;;0.20;0.20;;;22.80;73.80;;;;;;4966071;28;20432;-80
2023/09/14 01:03:40;;;;;;;0.22;0.22;;;22.80;74.00;;;;;;4964283;28;20042;-80
2023/09/14 01:06:05;;;;;;;0.30;0.25;;;22.80;74.00;;;;;;4963589;28;20046;-80
2023/09/14 01:08:31;;;;;;;0.20;0.20;;;22.80;74.00;;;;;;4964568;28;20387;-80
2023/09/14 01:10:57;;;;;;;0.20;0.20;;;22.80;73.80;;;;;;4968669;28;20034;-80
2023/09/14 01:13:44;;;;;;;0.17;0.10;;;22.80;73.80;;;;;;4966954;28;20042;-79
2023/09/14 01:16:26;;;;;;;0.10;0.10;;;22.80;73.80;;;;;;4969000;28;20122;-79
2023/09/14 01:18:55;;;;;;;0.10;0.10;;;22.80;73.70;;;;;;4967900;28;20070;-80
2023/09/14 01:21:30;;;;;;;0.28;0.15;;;22.80;73.60;;;;;;4966846;28;20150;-79
2023/09/14 01:24:38;;;;;;;0.20;0.20;;;22.80;73.50;;;;;;4969705;28;20050;-80
2023/09/14 01:27:04;;;;;;;0.20;0.20;;;22.80;73.80;;;;;;4962488;28;20035;-80
2023/09/14 01:29:29;;;;;;;0.40;0.30;;;22.80;73.70;;;;;;4979983;28;20096;-80
2023/09/14 01:31:55;;;;;;;0.20;0.20;;;22.80;74.00;;;;;;4970124;28;20043;-80
2023/09/14 01:34:21;;;;;;;0.22;0.22;;;22.80;73.90;;;;;;4967030;28;20047;-80
2023/09/14 01:36:53;;;;;;;0.40;0.30;;;22.80;73.80;;;;;;4968092;28;20031;-80
2023/09/14 01:39:19;;;;;;;0.32;0.10;;;22.70;73.80;;;;;;4965102;28;20043;-80
2023/09/14 01:41:45;;;;;;;0.20;0.20;;;22.70;73.80;;;;;;4949283;28;20051;-80
2023/09/14 01:44:10;;;;;;;0.20;0.20;;;22.80;73.80;;;;;;4969355;28;20039;-79
2023/09/14 01:46:36;;;;;;;0.10;0.10;;;22.80;73.80;;;;;;4966519;28;20058;-80
2023/09/14 01:49:01;;;;;;;0.45;0.22;;;22.80;73.60;;;;;;4966230;28;20118;-80
2023/09/14 01:51:28;;;;;;;0.20;0.20;;;22.80;73.70;;;;;;4966829;28;20096;-80
2023/09/14 01:53:53;;;;;;;0.20;0.20;;;22.70;73.70;;;;;;4969201;28;20054;-80
2023/09/14 01:56:19;;;;;;;1.13;0.52;;;22.80;73.90;;;;;;4967401;28;20043;-79
2023/09/14 01:58:44;;;;;;;0.10;0.10;;;22.80;73.70;;;;;;4968315;28;20051;-80
2023/09/14 02:01:10;;;;;;;0.30;0.30;;;22.70;73.60;;;;;;4966154;28;20054;-80
2023/09/14 02:03:36;;;;;;;0.20;0.20;;;22.80;73.60;;;;;;4968660;28;20081;-80
2023/09/14 02:06:02;;;;;;;0.22;0.20;;;22.80;73.70;;;;;;4967338;28;20055;-80
2023/09/14 02:08:30;;;;;;;0.10;0.10;;;22.80;73.60;;;;;;4966243;28;20043;-80
2023/09/14 02:10:55;;;;;;;0.28;0.28;;;22.70;73.90;;;;;;4968895;28;20137;-80
2023/09/14 02:13:21;;;;;;;0.20;0.20;;;22.70;73.80;;;;;;4967124;28;20126;-80
2023/09/14 02:15:47;;;;;;;0.20;0.20;;;22.70;74.10;;;;;;4968501;28;20452;-80
2023/09/14 02:18:12;;;;;;;0.20;0.20;;;22.70;74.00;;;;;;4968578;28;20421;-80
2023/09/14 02:20:41;;;;;;;0.10;0.10;;;22.70;74.70;;;;;;4969169;28;20412;-80
2023/09/14 02:23:07;;;;;;;0.22;0.22;;;22.70;73.90;;;;;;4965590;28;20050;-80
2023/09/14 02:25:32;;;;;;;0.20;0.20;;;22.70;73.80;;;;;;4967631;28;20057;-80
2023/09/14 02:27:58;;;;;;;0.10;0.10;;;22.70;73.90;;;;;;4964283;28;20042;-80
2023/09/14 02:30:26;;;;;;;0.25;0.20;;;22.70;74.60;;;;;;4963668;28;20043;-80
2023/09/14 02:32:52;;;;;;;0.10;0.10;;;22.70;73.80;;;;;;4962925;28;20042;-80
2023/09/14 02:35:17;;;;;;;0.20;0.20;;;22.70;73.70;;;;;;4963620;28;20203;-80
2023/09/14 02:37:44;;;;;;;0.20;0.20;;;22.70;73.60;;;;;;4965872;28;20039;-80
2023/09/14 02:40:10;;;;;;;0.20;0.20;;;22.70;73.70;;;;;;4961984;28;20042;-80
2023/09/14 02:42:37;;;;;;;0.10;0.10;;;22.70;73.70;;;;;;4962910;28;20055;-80
2023/09/14 02:45:06;;;;;;;0.30;0.30;;;22.70;73.50;;;;;;4966470;28;20041;-80
2023/09/14 02:47:31;;;;;;;0.15;0.15;;;22.70;73.50;;;;;;4963927;28;20761;-80
2023/09/14 02:49:58;;;;;;;0.17;0.17;;;22.70;73.70;;;;;;4963345;28;20082;-80
2023/09/14 02:52:24;;;;;;;0.10;0.10;;;22.70;73.80;;;;;;4964949;28;20110;-80
2023/09/14 02:54:50;;;;;;;0.20;0.20;;;22.70;73.80;;;;;;4962731;28;20603;-80
2023/09/14 02:57:15;;;;;;;0.20;0.20;;;22.70;73.70;;;;;;4965154;28;20061;-80
2023/09/14 02:59:41;;;;;;;0.10;0.10;;;22.70;73.70;;;;;;4964403;28;20055;-80
2023/09/14 03:02:06;;;;;;;0.10;0.10;;;22.70;73.70;;;;;;4963590;28;20085;-80
2023/09/14 03:04:32;;;;;;;0.13;0.13;;;22.70;73.70;;;;;;4963354;28;20437;-80
2023/09/14 03:06:57;;;;;;;0.10;0.10;;;22.70;73.40;;;;;;4963067;28;20435;-80
2023/09/14 03:09:23;;;;;;;0.13;0.13;;;22.70;73.30;;;;;;4962746;28;20035;-80
2023/09/14 03:11:49;;;;;;;0.10;0.10;;;22.70;73.30;;;;;;4962371;28;20047;-80
2023/09/14 03:14:14;;;;;;;0.82;0.20;;;22.70;73.20;;;;;;4964501;28;20050;-80
2023/09/14 03:16:40;;;;;;;0.28;0.20;;;22.70;73.40;;;;;;4966063;28;20053;-81
2023/09/14 03:19:05;;;;;;;0.40;0.40;;;22.70;73.20;;;;;;4963880;28;20062;-80
2023/09/14 03:21:31;;;;;;;0.52;0.40;;;22.70;73.20;;;;;;4962601;28;20042;-80
2023/09/14 03:23:56;;;;;;;1.25;0.50;;;22.70;73.00;;;;;;4963246;28;21201;-80
2023/09/14 03:26:23;;;;;;;0.40;0.30;;;22.70;73.10;;;;;;4961047;28;20465;-80
2023/09/14 03:28:49;;;;;;;0.30;0.30;;;22.70;73.00;;;;;;4963877;28;20061;-80
2023/09/14 03:31:14;;;;;;;0.35;0.30;;;22.70;73.00;;;;;;4963519;28;20732;-79
2023/09/14 03:33:40;;;;;;;0.40;0.40;;;22.70;73.00;;;;;;4964019;28;20058;-80
2023/09/14 03:36:06;;;;;;;0.30;0.30;;;22.70;73.00;;;;;;4965424;28;20519;-80
2023/09/14 03:38:31;;;;;;;0.30;0.30;;;22.70;73.00;;;;;;4963903;28;20113;-80
2023/09/14 03:40:57;;;;;;;0.30;0.30;;;22.70;72.90;;;;;;4963006;28;20516;-80
2023/09/14 03:43:22;;;;;;;0.45;0.30;;;22.70;72.90;;;;;;4961799;28;20039;-80
2023/09/14 03:45:48;;;;;;;0.32;0.32;;;22.70;73.00;;;;;;4961346;28;20045;-80
2023/09/14 03:48:14;;;;;;;0.38;0.38;;;22.70;73.00;;;;;;4964334;28;20038;-80
2023/09/14 03:50:39;;;;;;;0.38;0.28;;;22.70;73.00;;;;;;4963289;28;20038;-80
2023/09/14 03:53:05;;;;;;;0.30;0.30;;;22.70;72.90;;;;;;4965677;28;20504;-80
2023/09/14 03:55:30;;;;;;;0.30;0.20;;;22.70;73.00;;;;;;4962366;28;20067;-80
2023/09/14 03:57:57;;;;;;;0.70;0.63;;;22.70;72.90;;;;;;4964198;28;20043;-80
2023/09/14 04:00:22;;;;;;;0.20;0.20;;;22.70;72.90;;;;;;4961155;28;20417;-81
2023/09/14 04:02:48;;;;;;;0.30;0.30;;;22.70;72.80;;;;;;4964394;28;20591;-80
2023/09/14 04:05:17;;;;;;;0.20;0.20;;;22.70;72.90;;;;;;4964941;28;20046;-80
2023/09/14 04:07:45;;;;;;;0.45;0.40;;;22.70;72.80;;;;;;4965115;28;21289;-80
2023/09/14 04:10:11;;;;;;;0.40;0.40;;;22.70;72.90;;;;;;4962591;28;20065;-80
2023/09/14 04:12:40;;;;;;;0.30;0.30;;;22.70;72.80;;;;;;4961766;28;20069;-80
2023/09/14 04:15:06;;;;;;;0.47;0.30;;;22.70;72.80;;;;;;4962345;28;20505;-80
2023/09/14 04:17:33;;;;;;;0.30;0.30;;;22.70;72.80;;;;;;4959396;28;20043;-80
2023/09/14 04:19:58;;;;;;;0.40;0.35;;;22.70;72.70;;;;;;4964092;28;20054;-80
2023/09/14 04:22:24;;;;;;;0.30;0.30;;;22.70;72.80;;;;;;4965408;28;20051;-80
2023/09/14 04:24:50;;;;;;;0.30;0.30;;;22.70;72.80;;;;;;4961848;28;20054;-80
2023/09/14 04:27:15;;;;;;;0.43;0.43;;;22.70;72.70;;;;;;4964138;28;20524;-80
2023/09/14 04:29:41;;;;;;;0.30;0.20;;;22.70;73.00;;;;;;4961887;28;20057;-80
2023/09/14 04:32:24;;;;;;;0.41;0.36;;;22.70;72.90;;;;;;4869396;28;10000607;-80
2023/09/14 04:34:50;;;;;;;0.30;0.30;;;22.70;72.70;;;;;;4977433;28;20282;-81
2023/09/14 04:37:16;;;;;;;0.85;0.20;;;22.70;74.00;;;;;;4959519;28;20034;-81
2023/09/14 04:39:42;;;;;;;0.20;0.20;;;22.70;73.00;;;;;;4959291;28;20039;-81
2023/09/14 04:42:09;;;;;;;0.32;0.30;;;22.70;73.00;;;;;;4961566;28;20058;-80
2023/09/14 04:44:34;;;;;;;0.20;0.20;;;22.70;73.00;;;;;;4961098;28;20061;-80
2023/09/14 04:47:00;;;;;;;0.10;0.10;;;22.70;72.90;;;;;;4964412;28;20039;-80
2023/09/14 04:49:25;;;;;;;0.30;0.25;;;22.70;73.10;;;;;;4964878;28;20129;-79
2023/09/14 04:51:51;;;;;;;0.70;0.50;;;22.70;73.30;;;;;;4964082;28;20412;-80
2023/09/14 04:54:17;;;;;;;0.28;0.28;;;22.70;73.50;;;;;;4962973;28;20050;-79
2023/09/14 04:56:42;;;;;;;0.30;0.30;;;22.70;74.10;;;;;;4960276;28;20513;-80
2023/09/14 04:59:08;;;;;;;0.30;0.30;;;22.70;73.10;;;;;;4962275;28;20085;-80
2023/09/14 05:01:33;;;;;;;0.20;0.20;;;22.70;73.70;;;;;;4960713;28;20523;-80
2023/09/14 05:03:59;;;;;;;1.10;0.40;;;22.80;73.70;;;;;;4962627;28;20054;-81
2023/09/14 05:06:25;;;;;;;0.20;0.20;;;22.80;73.20;;;;;;4964428;28;20058;-80
2023/09/14 05:08:51;;;;;;;0.20;0.20;;;22.80;73.40;;;;;;4961338;28;20098;-81
2023/09/14 05:11:16;;;;;;;0.20;0.20;;;22.80;73.90;;;;;;4962059;28;20055;-82
2023/09/14 05:13:42;;;;;;;0.30;0.20;;;22.80;74.40;;;;;;4964866;28;20054;-81
2023/09/14 05:16:07;;;;;;;0.20;0.20;;;22.80;74.40;;;;;;4962761;28;20043;-81
2023/09/14 05:18:33;;;;;;;0.40;0.20;;;22.80;74.20;;;;;;4962432;28;20046;-81
2023/09/14 05:20:58;;;;;;;0.30;0.30;;;22.80;74.60;;;;;;4959243;28;20184;-81
2023/09/14 05:23:24;;;;;;;0.20;0.20;;;22.80;74.50;;;;;;4962937;28;20034;-80
2023/09/14 05:25:49;;;;;;;0.10;0.10;;;22.80;74.70;;;;;;4960998;28;20461;-81
2023/09/14 05:28:15;;;;;;;0.32;0.30;;;22.80;74.50;;;;;;4976001;28;20040;-80
2023/09/14 05:30:41;;;;;;;0.20;0.20;;;22.80;74.40;;;;;;4961511;28;20046;-81
2023/09/14 05:33:07;;;;;;;0.20;0.20;;;22.80;74.50;;;;;;4963976;28;20041;-80
2023/09/14 05:35:33;;;;;;;0.15;0.15;;;22.80;74.40;;;;;;4962030;28;20086;-80
2023/09/14 05:37:58;;;;;;;0.10;0.10;;;22.80;74.30;;;;;;4961944;28;20031;-80
2023/09/14 05:40:24;;;;;;;0.32;0.30;;;22.80;74.30;;;;;;4960119;28;20424;-80
2023/09/14 05:42:49;;;;;;;0.30;0.25;;;22.80;74.30;;;;;;4961574;28;20045;-80
2023/09/14 05:45:16;;;;;;;0.38;0.30;;;22.70;74.20;;;;;;4962550;28;20500;-80
2023/09/14 05:47:41;;;;;;;0.70;0.70;;;22.80;72.20;;;;;;4963668;28;20690;-79
2023/09/14 05:50:08;;;;;;;0.90;0.90;;;22.70;68.80;;;;;;4964215;28;20034;-76
2023/09/14 05:52:34;;;;;;;1.00;1.00;;;22.40;66.30;;;;;;4959871;28;20043;-76
2023/09/14 05:55:00;;;;;;;1.17;1.13;;;22.20;65.30;;;;;;4962119;28;20098;-77
2023/09/14 05:57:26;;;;;;;1.25;1.00;;;22.00;64.60;;;;;;4960963;28;20054;-76
2023/09/14 05:59:52;;;;;;;0.65;0.65;;;22.10;64.80;;;;;;4961933;28;20047;-76
2023/09/14 06:02:18;;;;;;;0.70;0.70;;;21.90;63.90;;;;;;4961053;28;20055;-76
2023/09/14 06:04:44;;;;;;;0.40;0.40;;;21.70;63.90;;;;;;4960922;28;20046;-74
2023/09/14 06:07:10;;;;;;;0.50;0.50;;;21.60;64.30;;;;;;4962904;28;20057;-76
2023/09/14 06:09:35;;;;;;;0.50;0.50;;;21.60;64.20;;;;;;4959735;28;20516;-76
2023/09/14 06:12:10;;;;;;;0.52;0.40;;;21.60;63.50;;;;;;4964187;28;20459;-79
2023/09/14 06:14:37;;;;;;;0.35;0.35;;;21.60;63.50;;;;;;4962793;28;20050;-75
2023/09/14 06:17:03;;;;;;;4.05;0.40;;;21.40;63.20;;;;;;4964630;28;20043;-77
2023/09/14 06:19:28;;;;;;;0.30;0.30;;;21.40;63.00;;;;;;4960318;28;20050;-75
2023/09/14 06:21:54;;;;;;;0.32;0.32;;;21.30;63.40;;;;;;4961991;28;20066;-75
2023/09/14 06:24:20;;;;;;;0.30;0.30;;;21.20;63.40;;;;;;4958148;28;20233;-75
2023/09/14 06:26:45;;;;;;;0.40;0.40;;;21.20;63.20;;;;;;4958108;28;20046;-76
2023/09/14 06:29:13;;;;;;;1.13;0.10;;;21.20;64.30;;;;;;4961569;28;20043;-76
2023/09/14 06:31:40;;;;;;;0.30;0.30;;;21.40;65.30;;;;;;4959860;28;20114;-76
2023/09/14 06:34:05;;;;;;;0.50;0.30;;;21.60;65.80;;;;;;4963565;28;20066;-77
2023/09/14 06:36:31;;;;;;;1.42;0.20;;;21.80;65.50;;;;;;4962939;28;20082;-76
2023/09/14 06:38:57;;;;;;;1.00;0.20;;;21.90;66.00;;;;;;4938495;28;20050;-76
2023/09/14 06:41:22;;;;;;;0.15;0.13;;;22.00;66.70;;;;;;4964093;28;20535;-77
2023/09/14 06:43:48;;;;;;;0.93;0.30;;;22.00;66.70;;;;;;4966897;28;20059;-77
2023/09/14 06:46:13;;;;;;;0.50;0.30;;;21.90;66.80;;;;;;4968477;28;20093;-77
2023/09/14 06:48:39;;;;;;;0.30;0.10;;;22.00;66.90;;;;;;4966099;28;20044;-77
2023/09/14 06:51:05;;;;;;;0.30;0.15;;;22.00;66.80;;;;;;4967806;28;20051;-77
2023/09/14 06:53:32;;;;;;;0.55;0.20;;;22.00;66.70;;;;;;4966041;28;22248;-77
2023/09/14 06:55:57;;;;;;;0.30;0.20;;;22.10;67.80;;;;;;4968895;28;20047;-77
2023/09/14 06:58:23;;;;;;;0.40;0.20;;;22.10;67.10;;;;;;4967254;28;20105;-76
2023/09/14 07:00:48;;;;;;;0.73;0.25;;;22.10;67.40;;;;;;4962934;28;20062;-77
2023/09/14 07:03:14;;;;;;;0.88;0.20;;;22.10;67.70;;;;;;4966579;28;20054;-76
2023/09/14 07:05:39;;;;;;;0.10;0.10;;;22.10;68.00;;;;;;4962947;28;20516;-76
2023/09/14 07:08:05;;;;;;;0.40;0.13;;;22.20;68.10;;;;;;4967438;28;20039;-76
2023/09/14 07:10:31;;;;;;;0.50;0.20;;;22.10;68.40;;;;;;4967460;28;20031;-76
2023/09/14 07:12:56;;;;;;;0.17;0.10;;;22.10;68.70;;;;;;4967243;28;20471;-76
2023/09/14 07:15:22;;;;;;;0.10;0.10;;;22.20;68.90;;;;;;4967220;28;20043;-76
2023/09/14 07:17:47;;;;;;;2.50;0.20;;;22.20;69.00;;;;;;4966836;28;20627;-76
2023/09/14 07:20:13;;;;;;;0.40;0.15;;;22.20;69.10;;;;;;4967787;28;20047;-76
2023/09/14 07:22:39;;;;;;;0.30;0.30;;;22.20;69.10;;;;;;4965779;28;20039;-76
2023/09/14 07:25:05;;;;;;;0.30;0.20;;;22.20;69.20;;;;;;4965909;28;20035;-76
2023/09/14 07:27:31;;;;;;;0.20;0.17;;;22.20;69.20;;;;;;4966040;28;20042;-76
2023/09/14 07:29:57;;;;;;;0.20;0.20;;;22.20;69.10;;;;;;4966908;28;20074;-76
2023/09/14 07:32:22;;;;;;;0.20;0.20;;;22.20;69.00;;;;;;4964981;28;20077;-76
2023/09/14 07:34:48;;;;;;;0.30;0.30;;;22.20;68.90;;;;;;4967236;28;20135;-77
2023/09/14 07:37:13;;;;;;;0.40;0.20;;;22.20;69.20;;;;;;4967000;28;20039;-77
2023/09/14 07:39:39;;;;;;;1.30;0.30;;;22.20;69.40;;;;;;4966592;28;20097;-77
2023/09/14 07:42:04;;;;;;;0.20;0.20;;;22.20;69.50;;;;;;4964221;28;20133;-77
2023/09/14 07:44:30;;;;;;;0.20;0.10;;;22.20;69.60;;;;;;4965754;28;20039;-77
2023/09/14 07:46:56;;;;;;;0.20;0.20;;;22.30;69.90;;;;;;4967747;28;20047;-77
2023/09/14 07:49:21;;;;;;;0.20;0.20;;;22.30;69.90;;;;;;4965231;28;20046;-77
2023/09/14 07:51:47;;;;;;;0.20;0.20;;;22.20;69.90;;;;;;4965677;28;20039;-77
2023/09/14 07:54:13;;;;;;;0.32;0.30;;;22.20;70.00;;;;;;4966030;28;20047;-77
2023/09/14 07:56:39;;;;;;;0.30;0.30;;;22.30;70.10;;;;;;4966585;28;20046;-77
2023/09/14 07:59:04;;;;;;;2.10;0.20;;;22.30;70.20;;;;;;4967359;28;20611;-77
2023/09/14 08:01:30;;;;;;;0.20;0.15;;;22.30;70.20;;;;;;4963300;28;20130;-77
2023/09/14 08:03:55;;;;;;;0.20;0.17;;;22.30;70.10;;;;;;4964918;28;20061;-77
2023/09/14 08:06:23;;;;;;;0.13;0.10;;;22.30;70.20;;;;;;4964121;28;20049;-77
2023/09/14 08:08:49;;;;;;;0.22;0.20;;;22.30;70.30;;;;;;4966418;28;20045;-77
2023/09/14 08:11:14;;;;;;;0.20;0.20;;;22.30;70.40;;;;;;4968381;28;20043;-77
2023/09/14 08:13:40;;;;;;;0.32;0.20;;;22.30;70.70;;;;;;4966303;28;20406;-77
2023/09/14 08:16:05;;;;;;;0.57;0.10;;;22.30;70.70;;;;;;4966001;28;20063;-77
2023/09/14 08:18:31;;;;;;;0.55;0.20;;;22.30;70.70;;;;;;4965847;28;20050;-77
2023/09/14 08:20:57;;;;;;;0.13;0.13;;;22.30;70.70;;;;;;4964761;28;20050;-76
2023/09/14 08:23:22;;;;;;;0.15;0.10;;;22.30;70.60;;;;;;4966513;28;20067;-77
2023/09/14 08:25:48;;;;;;;0.25;0.10;;;22.40;70.30;;;;;;4966872;28;20146;-77
2023/09/14 08:28:17;;;;;;;1.70;0.22;;;22.40;70.10;;;;;;4967258;28;20101;-77
2023/09/14 08:30:43;;;;;;;0.10;0.10;;;22.40;70.00;;;;;;4965753;28;20053;-77
2023/09/14 08:33:10;;;;;;;0.43;0.43;;;22.50;70.00;;;;;;4959324;28;20085;-77
2023/09/14 08:35:36;;;;;;;0.50;0.20;;;22.50;70.00;;;;;;4964325;28;20059;-77
2023/09/14 08:38:05;;;;;;;0.45;0.20;;;22.50;70.00;;;;;;4966439;28;20077;-77
2023/09/14 08:40:31;;;;;;;0.20;0.10;;;22.50;70.10;;;;;;4962730;28;20059;-77
2023/09/14 08:42:57;;;;;;;0.22;0.13;;;22.60;70.10;;;;;;4965114;28;20093;-77
2023/09/14 08:45:27;;;;;;;0.10;0.10;;;22.60;70.20;;;;;;4966161;28;20047;-77
2023/09/14 08:47:53;;;;;;;0.20;0.20;;;22.60;71.00;;;;;;4978252;28;20046;-77
2023/09/14 08:50:20;;;;;;;0.40;0.15;;;22.60;70.20;;;;;;4963479;28;20074;-77
2023/09/14 08:52:46;;;;;;;0.08;0.08;;;22.70;70.50;;;;;;4966735;28;20100;-77
2023/09/14 08:55:12;;;;;;;0.15;0.15;;;22.60;70.30;;;;;;4965518;28;20073;-77
2023/09/14 08:57:39;;;;;;;0.75;0.20;;;22.70;70.50;;;;;;4966234;28;20162;-76
2023/09/14 09:00:14;;;;;;;0.55;0.10;;;22.70;70.50;;;;;;4966806;28;20054;-76
2023/09/14 09:02:43;;;;;;;0.10;0.10;;;22.70;70.60;;;;;;4967286;28;20038;-76
2023/09/14 09:05:12;;;;;;;0.52;0.20;;;22.70;70.70;;;;;;4966524;28;20046;-76
2023/09/14 09:07:39;;;;;;;0.20;0.10;;;22.70;70.40;;;;;;4963459;28;20122;-76
2023/09/14 09:10:07;;;;;;;0.20;0.20;;;22.70;70.40;;;;;;4966798;28;20047;-76
2023/09/14 09:12:33;;;;;;;0.13;0.10;;;22.80;70.50;;;;;;4980733;28;20134;-77
2023/09/14 09:14:58;;;;;;;0.20;0.20;;;22.80;70.40;;;;;;4964667;28;20498;-77
2023/09/14 09:17:24;;;;;;;1.35;0.10;;;22.80;70.40;;;;;;4945009;28;20133;-77
2023/09/14 09:19:52;;;;;;;0.20;0.20;;;22.80;71.30;;;;;;4964930;28;20047;-77
2023/09/14 09:22:17;;;;;;;0.20;0.10;;;22.80;70.80;;;;;;4965311;28;20047;-77
2023/09/14 09:24:43;;;;;;;0.20;0.20;;;22.80;70.40;;;;;;4946742;28;20134;-76
2023/09/14 09:27:27;;;;;;;0.08;0.08;;;22.80;70.30;;;;;;4966728;28;20126;-76
2023/09/14 09:29:59;;;;;;;0.10;0.10;;;22.90;70.30;;;;;;4964219;28;20058;-76
2023/09/14 09:32:25;;;;;;;0.20;0.20;;;22.90;70.40;;;;;;4967680;28;20105;-76
2023/09/14 09:34:50;;;;;;;0.10;0.10;;;22.80;71.30;;;;;;4969322;28;20047;-76
2023/09/14 09:37:16;;;;;;;0.10;0.10;;;22.80;70.50;;;;;;4969422;28;20061;-76
2023/09/14 09:39:43;;;;;;;0.20;0.20;;;22.80;70.60;;;;;;4967225;28;20035;-77
2023/09/14 09:42:12;;;;;;;0.20;0.20;;;22.90;70.50;;;;;;4968951;28;20049;-77
2023/09/14 09:44:39;;;;;;;0.20;0.15;;;22.90;70.70;;;;;;4965438;28;20558;-77
2023/09/14 09:47:05;;;;;;;0.17;0.17;;;22.90;70.50;;;;;;4969263;28;20121;-77
2023/09/14 09:49:31;;;;;;;0.75;0.25;;;22.90;71.00;;;;;;4969601;28;20516;-77
2023/09/14 09:51:57;;;;;;;0.17;0.17;;;22.90;70.90;;;;;;4966808;28;20074;-77
2023/09/14 09:54:24;;;;;;;0.30;0.20;;;22.90;70.50;;;;;;4968162;28;20413;-77
2023/09/14 09:56:51;;;;;;;0.10;0.10;;;22.90;70.30;;;;;;4968340;28;20062;-77
2023/09/14 09:59:17;;;;;;;0.82;0.20;;;22.90;70.40;;;;;;4967472;28;20093;-77
2023/09/14 10:01:46;;;;;;;0.40;0.30;;;22.90;70.30;;;;;;4968880;28;20054;-77
2023/09/14 10:04:13;;;;;;;0.20;0.10;;;22.90;70.30;;;;;;4966555;28;20054;-77
2023/09/14 10:06:40;;;;;;;0.10;0.10;;;23.00;70.20;;;;;;4968676;28;20042;-77
2023/09/14 10:09:10;;;;;;;0.17;0.17;;;23.00;70.20;;;;;;4955787;28;20057;-77
2023/09/14 10:11:36;;;;;;;0.30;0.20;;;22.90;70.40;;;;;;4963804;28;20050;-76
2023/09/14 10:14:05;;;;;;;0.35;0.10;;;22.90;70.40;;;;;;4969783;28;20039;-76
2023/09/14 10:16:41;;;;;;;0.28;0.10;;;22.90;70.60;;;;;;4966297;28;20509;-76
2023/09/14 10:19:07;;;;;;;1.48;0.20;;;22.90;70.40;;;;;;4965689;28;20134;-76
2023/09/14 10:21:33;;;;;;;0.35;0.22;;;22.90;70.40;;;;;;4968582;28;20054;-76
2023/09/14 10:23:59;;;;;;;0.22;0.22;;;23.00;70.30;;;;;;4968194;28;20134;-76
2023/09/14 10:26:25;;;;;;;0.20;0.20;;;23.00;70.20;;;;;;4968998;28;20125;-76
2023/09/14 10:28:51;;;;;;;1.23;0.10;;;23.00;70.20;;;;;;4966457;28;20452;-76
2023/09/14 10:31:16;;;;;;;0.22;0.22;;;23.00;70.10;;;;;;4968004;28;20134;-76
2023/09/14 10:33:45;;;;;;;0.40;0.30;;;23.00;70.10;;;;;;4968208;28;20046;-76
2023/09/14 10:36:11;;;;;;;0.03;0.03;;;23.00;70.00;;;;;;4969087;28;20428;-76
2023/09/14 10:38:39;;;;;;;0.10;0.10;;;23.00;70.10;;;;;;4967144;28;21381;-76
2023/09/14 10:41:04;;;;;;;0.30;0.20;;;23.00;70.10;;;;;;4952160;28;20105;-76
2023/09/14 10:43:30;;;;;;;0.20;0.20;;;23.00;70.40;;;;;;4966376;28;20050;-77
2023/09/14 10:46:00;;;;;;;0.20;0.20;;;23.00;70.20;;;;;;4966972;28;20055;-77
2023/09/14 10:48:29;;;;;;;0.22;0.15;;;23.00;70.20;;;;;;4964849;28;20057;-76
2023/09/14 10:50:58;;;;;;;0.20;0.20;;;23.00;70.50;;;;;;4968598;28;20570;-77
2023/09/14 10:53:24;;;;;;;0.65;0.30;;;23.00;70.40;;;;;;4950343;28;20042;-77
2023/09/14 10:55:50;;;;;;;0.32;0.25;;;23.00;70.60;;;;;;4967039;28;20051;-76
2023/09/14 10:58:16;;;;;;;0.20;0.13;;;23.00;70.60;;;;;;4966117;28;20138;-77
2023/09/14 11:00:42;;;;;;;1.25;0.10;;;23.00;70.60;;;;;;4966904;28;20215;-76
2023/09/14 11:03:08;;;;;;;0.20;0.20;;;23.00;70.90;;;;;;4963927;28;20129;-77
2023/09/14 11:05:42;;;;;;;0.10;0.10;;;23.00;70.80;;;;;;4966501;28;20189;-77
2023/09/14 11:08:08;;;;;;;0.28;0.28;;;23.00;71.10;;;;;;4966990;28;20043;-77
2023/09/14 11:10:34;;;;;;;0.47;0.47;;;23.00;70.90;;;;;;4967092;28;20054;-77
2023/09/14 11:13:18;;;;;;;1.05;0.50;;;23.00;70.70;;;;;;4965553;28;20074;-77
2023/09/14 11:15:46;;;;;;;0.88;0.40;;;23.10;70.50;;;;;;4960181;28;20059;-77
2023/09/14 11:18:19;;;;;;;0.43;0.43;;;23.00;69.20;;;;;;4957912;28;20051;-77
2023/09/14 11:20:45;;;;;;;0.55;0.52;;;22.90;68.80;;;;;;4959394;28;20134;-77
2023/09/14 11:23:11;;;;;;;0.52;0.52;;;23.00;69.00;;;;;;4965402;28;20531;-77
2023/09/14 11:25:39;;;;;;;2.70;0.60;;;23.00;69.10;;;;;;4964281;28;20043;-78
2023/09/14 11:28:08;;;;;;;0.82;0.70;;;23.00;68.90;;;;;;4963277;28;20059;-77
2023/09/14 11:30:41;;;;;;;0.60;0.60;;;23.00;68.60;;;;;;4965908;28;20472;-77
2023/09/14 11:33:06;;;;;;;0.97;0.73;;;23.00;67.80;;;;;;4961465;28;20528;-77
2023/09/14 11:35:53;;;;;;;0.68;0.40;;;23.00;67.30;;;;;;4966516;28;20047;-77
2023/09/14 11:38:25;;;;;;;0.50;0.50;;;23.00;66.70;;;;;;4962597;28;20075;-77
2023/09/14 11:40:53;;;;;;;0.60;0.50;;;23.10;66.80;;;;;;4963665;28;20051;-77
2023/09/14 11:43:24;;;;;;;0.73;0.50;;;23.10;62.70;;;;;;4965265;28;20070;-77
2023/09/14 11:45:57;;;;;;;0.52;0.52;;;23.10;63.60;;;;;;4965765;28;20039;-77
2023/09/14 11:48:23;;;;;;;0.63;0.55;;;23.10;64.00;;;;;;4967140;28;20042;-77
2023/09/14 11:50:50;;;;;;;0.55;0.50;;;23.10;63.70;;;;;;4965910;28;20057;-77
2023/09/14 11:53:19;;;;;;;0.77;0.57;;;23.10;62.60;;;;;;4979936;28;20517;-77
2023/09/14 11:55:49;;;;;;;1.77;0.43;;;23.10;63.50;;;;;;4966851;28;20141;-77
2023/09/14 11:58:14;;;;;;;1.05;0.55;;;23.10;62.60;;;;;;4960806;28;20524;-76
2023/09/14 12:00:41;;;;;;;0.60;0.60;;;23.10;64.10;;;;;;4963507;28;20054;-76
2023/09/14 12:03:07;;;;;;;0.47;0.47;;;23.10;63.40;;;;;;4582165;28;10000314;-77
2023/09/14 12:05:33;;;;;;;0.60;0.60;;;23.10;63.40;;;;;;4953465;28;20592;-77
2023/09/14 12:08:06;;;;;;;0.50;0.50;;;23.10;62.20;;;;;;4959717;28;20110;-76
2023/09/14 12:10:32;;;;;;;0.73;0.40;;;23.10;63.00;;;;;;4957982;28;22068;-76
2023/09/14 12:13:10;;;;;;;0.95;0.60;;;23.10;62.30;;;;;;4954527;28;20628;-76
2023/09/14 12:15:36;;;;;;;0.82;0.60;;;23.10;61.30;;;;;;4955428;28;20082;-76
2023/09/14 12:18:02;;;;;;;0.60;0.52;;;23.10;61.30;;;;;;4960888;28;20065;-76
2023/09/14 12:20:27;;;;;;;1.17;0.70;;;23.10;61.90;;;;;;4963935;28;20054;-77
2023/09/14 12:22:53;;;;;;;0.63;0.57;;;23.10;60.50;;;;;;4960676;28;20035;-77
2023/09/14 12:25:19;;;;;;;0.60;0.60;;;23.10;60.50;;;;;;4961402;28;20176;-77
2023/09/14 12:27:44;;;;;;;0.55;0.50;;;23.10;59.90;;;;;;4942645;28;20127;-76
2023/09/14 12:30:10;;;;;;;1.27;0.70;;;23.10;61.30;;;;;;4959327;28;20043;-76
2023/09/14 12:32:36;;;;;;;0.60;0.40;;;23.10;60.50;;;;;;4956893;28;20054;-76
2023/09/14 12:35:02;;;;;;;0.98;0.70;;;23.10;62.00;;;;;;4963487;28;20524;-76
2023/09/14 12:37:28;;;;;;;2.22;0.70;;;23.20;62.10;;;;;;4961727;28;20050;-76
2023/09/14 12:39:53;;;;;;;0.60;0.40;;;23.20;61.40;;;;;;4605069;28;10000558;-77
2023/09/14 12:42:23;;;;;;;1.05;0.60;;;23.20;61.30;;;;;;4961676;28;20568;-77